createdAt,value
2023-01-06T00:02:56.874Z,-20.98
2023-01-06T00:07:59.981Z,-21.22
2023-01-06T00:13:02.645Z,-21.35
2023-01-06T00:18:05.286Z,-21.15
2023-01-06T00:23:07.817Z,-21.22
2023-01-06T00:28:10.398Z,-21.25
2023-01-06T00:33:13.070Z,-21.26
2023-01-06T00:38:18.000Z,-21.33
2023-01-06T00:43:22.906Z,-21.46
2023-01-06T00:48:25.404Z,-21.63
2023-01-06T00:53:27.979Z,-21.52
2023-01-06T00:58:33.567Z,-21.60
2023-01-06T01:03:37.992Z,-21.62
2023-01-06T01:08:40.593Z,-21.76
2023-01-06T01:13:43.111Z,-21.75
2023-01-06T01:18:45.688Z,-21.89
2023-01-06T01:23:48.766Z,-21.98
2023-01-06T01:28:51.324Z,-22.14
2023-01-06T01:33:53.861Z,-22.10
2023-01-06T01:38:58.030Z,-22.15
2023-01-06T01:44:21.905Z,-22.35
2023-01-06T01:49:27.130Z,-22.36
2023-01-06T01:54:34.251Z,-22.36
2023-01-06T01:59:38.886Z,-22.40
2023-01-06T02:04:45.751Z,-22.61
2023-01-06T02:10:21.322Z,-22.67
2023-01-06T02:15:28.462Z,-22.56
2023-01-06T02:20:40.891Z,-22.62
2023-01-06T02:25:49.697Z,-22.59
2023-01-06T02:31:10.587Z,-22.66
2023-01-06T02:36:35.140Z,-22.86
2023-01-06T02:41:38.586Z,-22.75
2023-01-06T02:47:18.258Z,-22.78
2023-01-06T02:52:29.622Z,-22.93
2023-01-06T02:57:44.573Z,-23.03
2023-01-06T03:02:54.698Z,-23.16
2023-01-06T03:07:59.723Z,-23.06
2023-01-06T03:13:35.576Z,-23.17
2023-01-06T03:18:42.020Z,-23.06
2023-01-06T03:23:46.090Z,-23.20
2023-01-06T03:28:48.734Z,-23.17
2023-01-06T03:34:09.548Z,-23.26
2023-01-06T03:39:18.022Z,-23.29
2023-01-06T03:44:43.908Z,-23.40
2023-01-06T03:49:56.828Z,-23.35
2023-01-06T03:55:06.480Z,-23.42
2023-01-06T04:00:31.869Z,-23.50
2023-01-06T04:05:39.731Z,-23.55
2023-01-06T04:10:43.419Z,-23.64
2023-01-06T04:15:46.162Z,-23.64
2023-01-06T04:20:49.745Z,-23.67
2023-01-06T04:25:58.204Z,-23.70
2023-01-06T04:31:11.686Z,-23.71
2023-01-06T04:36:16.051Z,-23.91
2023-01-06T04:41:23.771Z,-23.71
2023-01-06T04:46:26.411Z,-23.79
2023-01-06T04:51:29.178Z,-23.83
2023-01-06T04:56:31.718Z,-23.77
2023-01-06T05:01:34.512Z,-23.83
2023-01-06T05:06:39.478Z,-24.01
2023-01-06T05:11:42.141Z,-23.85
2023-01-06T05:16:44.808Z,-23.85
2023-01-06T05:21:47.380Z,-23.93
2023-01-06T05:26:49.936Z,-23.99
2023-01-06T05:31:52.600Z,-24.28
2023-01-06T05:36:56.558Z,-24.29
2023-01-06T05:41:59.095Z,-23.97
2023-01-06T05:47:01.639Z,-23.96
2023-01-06T05:52:04.808Z,-23.83
2023-01-06T05:57:10.020Z,-23.95
2023-01-06T06:02:12.680Z,-24.07
2023-01-06T06:07:15.305Z,-24.15
2023-01-06T06:12:17.897Z,-24.08
2023-01-06T06:17:20.468Z,-24.17
2023-01-06T06:22:23.034Z,-24.09
2023-01-06T06:27:25.617Z,-24.32
2023-01-06T06:32:30.969Z,-24.12
2023-01-06T06:37:33.523Z,-24.18
2023-01-06T06:42:36.161Z,-24.09
2023-01-06T06:47:38.675Z,-24.03
2023-01-06T06:52:41.204Z,-23.97
2023-01-06T06:57:43.765Z,-23.89
2023-01-06T07:02:50.281Z,-23.77
2023-01-06T07:07:52.849Z,-23.66
2023-01-06T07:12:55.407Z,-23.55
2023-01-06T07:18:02.401Z,-23.48
2023-01-06T07:23:05.400Z,-23.46
2023-01-06T07:28:09.537Z,-23.41
2023-01-06T07:33:12.197Z,-23.27
2023-01-06T07:38:14.864Z,-23.24
2023-01-06T07:43:17.670Z,-23.12
2023-01-06T07:48:20.291Z,-23.10
2023-01-06T07:53:22.981Z,-22.90
2023-01-06T07:58:25.728Z,-22.73
2023-01-06T08:03:28.353Z,-22.70
2023-01-06T08:08:31.041Z,-22.77
2023-01-06T08:13:34.723Z,-22.76
2023-01-06T08:18:38.321Z,-22.47
2023-01-06T08:23:40.982Z,-22.37
2023-01-06T08:28:45.686Z,-22.30
2023-01-06T08:33:49.917Z,-22.19
2023-01-06T08:38:52.868Z,-22.34
2023-01-06T08:43:55.522Z,-22.14
2023-01-06T08:48:58.679Z,-22.01
2023-01-06T08:54:01.546Z,-22.24
2023-01-06T08:59:05.204Z,-21.74
2023-01-06T09:04:09.884Z,-21.60
2023-01-06T09:09:12.619Z,-21.78
2023-01-06T09:14:15.232Z,-21.40
2023-01-06T09:19:18.028Z,-21.32
2023-01-06T09:24:20.774Z,-21.29
2023-01-06T09:29:23.496Z,-21.17
2023-01-06T09:34:26.124Z,-21.05
2023-01-06T09:39:28.881Z,-20.79
2023-01-06T09:44:37.427Z,-20.65
2023-01-06T09:49:47.277Z,-20.44
2023-01-06T09:55:16.912Z,-20.61
2023-01-06T10:00:38.654Z,-21.02
2023-01-06T10:06:19.904Z,-20.70
2023-01-06T10:11:53.157Z,-20.59
2023-01-06T10:17:24.096Z,-20.52
2023-01-06T10:22:36.151Z,-20.51
2023-01-06T10:28:02.280Z,-20.38
2023-01-06T10:33:05.768Z,-20.32
2023-01-06T10:38:13.665Z,-20.41
2023-01-06T10:43:22.547Z,-20.13
2023-01-06T10:48:29.874Z,-20.02
2023-01-06T10:53:32.788Z,-19.98
2023-01-06T10:58:45.508Z,-20.23
2023-01-06T11:04:10.165Z,-20.19
2023-01-06T11:09:29.616Z,-20.11
2023-01-06T11:14:34.174Z,-20.07
2023-01-06T11:19:42.508Z,-20.09
2023-01-06T11:24:53.817Z,-20.10
2023-01-06T11:29:56.431Z,-19.73
2023-01-06T11:35:07.051Z,-19.90
2023-01-06T11:40:30.146Z,-20.01
2023-01-06T11:45:40.725Z,-19.91
2023-01-06T11:51:00.458Z,-20.02
2023-01-06T11:56:18.351Z,-19.98
2023-01-06T12:01:21.237Z,-20.05
2023-01-06T12:06:34.854Z,-20.04
2023-01-06T12:11:53.533Z,-20.34
2023-01-06T12:17:14.074Z,-20.01
2023-01-06T12:22:29.478Z,-20.24
2023-01-06T12:27:41.446Z,-20.29
2023-01-06T12:32:49.225Z,-20.17
2023-01-06T12:38:01.043Z,-20.20
2023-01-06T12:43:34.582Z,-20.49
2023-01-06T12:48:51.199Z,-20.73
2023-01-06T12:54:03.968Z,-21.07
2023-01-06T12:59:45.487Z,-21.00
2023-01-06T13:05:09.115Z,-21.20
2023-01-06T13:10:37.609Z,-21.32
2023-01-06T13:15:45.188Z,-21.32
2023-01-06T13:20:52.037Z,-21.57
2023-01-06T13:26:16.054Z,-21.44
2023-01-06T13:31:41.267Z,-21.50
2023-01-06T13:36:43.770Z,-21.53
2023-01-06T13:41:50.604Z,-21.57
2023-01-06T13:46:57.709Z,-21.46
2023-01-06T13:52:00.950Z,-21.50
2023-01-06T13:57:30.590Z,-21.55
2023-01-06T14:02:36.110Z,-21.66
2023-01-06T14:07:41.186Z,-22.00
2023-01-06T14:12:48.708Z,-22.03
2023-01-06T14:17:51.544Z,-21.69
2023-01-06T14:23:03.803Z,-21.75
2023-01-06T14:28:09.246Z,-21.98
2023-01-06T14:33:27.682Z,-22.37
2023-01-06T14:38:36.870Z,-22.20
2023-01-06T14:43:51.865Z,-22.25
2023-01-06T14:49:00.608Z,-22.41
2023-01-06T14:54:19.798Z,-22.44
2023-01-06T14:59:23.192Z,-22.62
2023-01-06T15:04:30.328Z,-22.66
2023-01-06T15:09:33.513Z,-22.82
2023-01-06T15:14:36.136Z,-23.12
2023-01-06T15:19:42.726Z,-23.21
2023-01-06T15:24:45.330Z,-23.11
2023-01-06T15:29:56.467Z,-23.15
2023-01-06T15:34:59.671Z,-23.18
2023-01-06T15:40:04.754Z,-23.22
2023-01-06T15:45:24.008Z,-23.68
2023-01-06T15:50:29.881Z,-23.32
2023-01-06T15:55:40.511Z,-23.43
2023-01-06T16:00:50.214Z,-23.47
2023-01-06T16:06:11.265Z,-23.42
2023-01-06T16:11:17.371Z,-23.46
2023-01-06T16:16:19.957Z,-23.58
2023-01-06T16:21:32.195Z,-23.52
2023-01-06T16:26:42.758Z,-23.52
2023-01-06T16:31:45.481Z,-23.62
2023-01-06T16:36:49.485Z,-23.50
2023-01-06T16:42:01.378Z,-23.46
2023-01-06T16:47:09.287Z,-23.55
2023-01-06T16:52:11.972Z,-23.41
2023-01-06T16:57:14.803Z,-24.10
2023-01-06T17:02:19.390Z,-23.40
2023-01-06T17:07:24.677Z,-23.45
2023-01-06T17:12:48.358Z,-23.36
2023-01-06T17:17:51.095Z,-23.21
2023-01-06T17:22:53.824Z,-23.13
2023-01-06T17:27:56.436Z,-23.21
2023-01-06T17:32:59.041Z,-23.23
2023-01-06T17:38:13.143Z,-23.18
2023-01-06T17:43:27.486Z,-23.29
2023-01-06T17:48:30.151Z,-23.31
2023-01-06T17:53:54.410Z,-23.48
2023-01-06T17:59:05.321Z,-23.50
2023-01-06T18:04:14.232Z,-23.46
2023-01-06T18:09:21.206Z,-23.46
2023-01-06T18:14:42.077Z,-23.44
2023-01-06T18:19:44.723Z,-23.37
2023-01-06T18:24:50.298Z,-23.25
2023-01-06T18:29:56.234Z,-23.43
2023-01-06T18:35:03.036Z,-23.43
2023-01-06T18:40:11.275Z,-23.59
2023-01-06T18:45:24.519Z,-23.55
2023-01-06T18:50:38.557Z,-23.71
2023-01-06T18:55:51.061Z,-23.61
2023-01-06T19:01:03.558Z,-23.66
2023-01-06T19:06:09.297Z,-23.57
2023-01-06T19:11:16.316Z,-23.60
2023-01-06T19:16:34.733Z,-23.54
2023-01-06T19:21:38.471Z,-23.61
2023-01-06T19:26:41.968Z,-23.45
2023-01-06T19:31:55.888Z,-23.28
2023-01-06T19:36:58.686Z,-23.63
2023-01-06T19:42:27.343Z,-23.57
2023-01-06T19:47:42.375Z,-23.38
2023-01-06T19:52:45.219Z,-23.36
2023-01-06T19:57:52.583Z,-23.47
2023-01-06T20:02:58.365Z,-23.75
2023-01-06T20:08:01.214Z,-23.80
2023-01-06T20:13:05.429Z,-23.53
2023-01-06T20:18:08.017Z,-23.78
2023-01-06T20:23:11.354Z,-23.68
2023-01-06T20:28:13.941Z,-23.62
2023-01-06T20:33:16.687Z,-23.60
2023-01-06T20:38:21.300Z,-23.68
2023-01-06T20:43:24.178Z,-23.61
2023-01-06T20:48:26.894Z,-23.82
2023-01-06T20:53:29.623Z,-23.98
2023-01-06T20:58:32.410Z,-23.72
2023-01-06T21:03:35.087Z,-23.81
2023-01-06T21:08:37.749Z,-24.01
2023-01-06T21:13:40.310Z,-23.80
2023-01-06T21:18:42.848Z,-23.78
2023-01-06T21:23:45.434Z,-24.04
2023-01-06T21:28:48.066Z,-23.88
2023-01-06T21:33:50.677Z,-23.86
2023-01-06T21:38:53.315Z,-23.85
2023-01-06T21:43:55.832Z,-23.70
2023-01-06T21:48:58.398Z,-23.92
2023-01-06T21:54:01.990Z,-24.60
2023-01-06T21:59:04.677Z,-24.15
2023-01-06T22:04:07.306Z,-23.99
2023-01-06T22:09:12.722Z,-24.15
2023-01-06T22:14:17.327Z,-24.07
2023-01-06T22:19:19.956Z,-24.12
2023-01-06T22:24:23.102Z,-24.26
2023-01-06T22:29:25.666Z,-24.33
2023-01-06T22:34:28.558Z,-24.19
2023-01-06T22:39:31.265Z,-24.37
2023-01-06T22:44:33.906Z,-24.38
2023-01-06T22:49:36.542Z,-24.44
2023-01-06T22:54:39.236Z,-24.03
2023-01-06T22:59:41.828Z,-24.03
2023-01-06T23:10:13.234Z,-24.11
2023-01-06T23:15:15.872Z,-24.10
2023-01-06T23:20:18.528Z,-24.16
2023-01-06T23:25:21.199Z,-24.28
2023-01-06T23:30:23.743Z,-24.25
2023-01-06T23:35:26.344Z,-24.22
2023-01-06T23:40:28.933Z,-24.23
2023-01-06T23:45:31.582Z,-24.36
2023-01-06T23:50:34.193Z,-24.21
2023-01-06T23:55:36.711Z,-24.12
